Time;durP1;ratioP1;P1;durP2;ratioP2;P2;SDS_P1;SDS_P2;PMS_P1;PMS_P2;Temp;Humidity;BMP_temperature;BMP_pressure;BME280_temperature;BME280_humidity;BME280_pressure;Samples;Min_cycle;Max_cycle;Signal;HPM_P1;HPM_P2
2020/12/26 00:01:27;;;;;;;25.00;11.00;;;0.50;99.90;;;;;;4460332;28;657662;-63
2020/12/26 00:04:14;;;;;;;25.43;10.17;;;0.40;99.90;;;;;;4469607;28;658365;-61
2020/12/26 00:07:01;;;;;;;27.00;10.50;;;0.50;99.90;;;;;;4469148;28;657947;-62
2020/12/26 00:09:49;;;;;;;24.27;11.50;;;0.30;99.90;;;;;;4448091;28;657792;-62
2020/12/26 00:12:36;;;;;;;28.70;11.40;;;0.30;99.90;;;;;;4468820;28;657965;-62
2020/12/26 00:15:23;;;;;;;31.47;11.37;;;0.20;99.90;;;;;;4445183;28;658292;-62
2020/12/26 00:18:10;;;;;;;26.63;10.95;;;0.20;99.90;;;;;;4468317;28;659031;-62
2020/12/26 00:20:57;;;;;;;15.20;5.43;;;0.30;99.90;;;;;;4449880;28;658644;-64
2020/12/26 00:23:44;;;;;;;31.93;11.10;;;0.40;99.90;;;;;;4474584;28;656597;-62
2020/12/26 00:26:32;;;;;;;28.33;11.37;;;0.40;99.90;;;;;;4468708;28;658111;-62
2020/12/26 00:29:19;;;;;;;30.50;11.18;;;0.30;99.90;;;;;;4450386;28;659114;-62
2020/12/26 00:32:06;;;;;;;7.57;3.70;;;0.30;99.90;;;;;;4468999;28;657473;-62
2020/12/26 00:34:53;;;;;;;23.02;10.07;;;0.60;99.90;;;;;;4452598;28;656295;-61
2020/12/26 00:37:40;;;;;;;26.63;10.93;;;0.40;99.90;;;;;;4469142;28;658547;-62
2020/12/26 00:40:27;;;;;;;25.87;11.10;;;0.30;99.90;;;;;;4449851;28;657610;-62
2020/12/26 00:43:15;;;;;;;24.27;11.03;;;0.20;99.90;;;;;;4473159;28;658892;-62
2020/12/26 00:46:02;;;;;;;18.20;8.20;;;0.20;99.90;;;;;;4450054;28;657558;-62
2020/12/26 00:48:50;;;;;;;17.53;7.10;;;0.30;99.90;;;;;;4473892;28;657326;-62
2020/12/26 00:51:37;;;;;;;24.65;10.40;;;0.20;99.90;;;;;;4450965;28;656334;-63
2020/12/26 00:54:24;;;;;;;23.37;10.50;;;0.20;99.90;;;;;;4472792;28;657485;-62
2020/12/26 00:57:11;;;;;;;12.17;5.23;;;0.20;99.90;;;;;;4468693;28;658870;-61
2020/12/26 00:59:59;;;;;;;22.03;10.47;;;0.20;99.90;;;;;;4448441;28;656786;-62
2020/12/26 01:02:46;;;;;;;17.13;7.90;;;0.20;99.90;;;;;;4468639;28;658741;-62
2020/12/26 01:05:33;;;;;;;23.53;11.07;;;0.10;99.90;;;;;;4445670;28;657923;-62
2020/12/26 01:08:20;;;;;;;21.77;11.03;;;0.20;99.90;;;;;;4468496;28;658444;-62
2020/12/26 01:11:07;;;;;;;22.47;10.90;;;0.20;99.90;;;;;;4448069;28;657484;-62
2020/12/26 01:13:54;;;;;;;25.23;10.87;;;0.10;99.90;;;;;;4469766;28;657891;-61
2020/12/26 01:16:43;;;;;;;18.50;8.57;;;0.10;99.90;;;;;;4461479;28;657612;-63
2020/12/26 01:19:29;;;;;;;23.50;10.63;;;0.30;99.90;;;;;;4472206;28;657481;-62
2020/12/26 01:22:17;;;;;;;20.37;10.00;;;0.30;99.90;;;;;;4452612;28;657586;-63
2020/12/26 01:25:04;;;;;;;6.75;3.15;;;0.30;99.90;;;;;;4472517;28;657754;-61
2020/12/26 01:27:51;;;;;;;24.53;10.70;;;0.20;99.90;;;;;;4470534;28;656205;-61
2020/12/26 01:30:38;;;;;;;22.03;9.00;;;0.20;99.90;;;;;;4446538;28;657806;-62
2020/12/26 01:33:26;;;;;;;14.37;7.03;;;0.10;99.90;;;;;;4472994;28;657017;-61
2020/12/26 01:36:13;;;;;;;19.73;8.40;;;0.10;99.90;;;;;;4450831;28;656641;-62
2020/12/26 01:39:00;;;;;;;15.70;8.10;;;0.20;99.90;;;;;;4469603;28;658095;-62
2020/12/26 01:41:49;;;;;;;19.67;8.23;;;0.20;99.90;;;;;;4454393;28;656774;-63
2020/12/26 01:44:36;;;;;;;11.80;6.30;;;0.10;99.90;;;;;;4469638;28;656854;-61
2020/12/26 01:47:23;;;;;;;15.73;6.83;;;0.10;99.90;;;;;;4448648;28;656550;-62
2020/12/26 01:50:10;;;;;;;14.70;7.13;;;0.20;99.90;;;;;;4469632;28;657999;-62
2020/12/26 01:52:58;;;;;;;14.67;6.33;;;0.10;99.90;;;;;;4450424;28;656965;-62
2020/12/26 01:55:44;;;;;;;16.83;6.93;;;0.00;99.90;;;;;;4468810;28;657279;-61
2020/12/26 01:58:32;;;;;;;14.63;5.90;;;0.10;99.90;;;;;;4455388;28;656931;-63
2020/12/26 02:01:29;;;;;;;16.10;6.72;;;0.10;99.90;;;;;;4473869;28;657543;-62
2020/12/26 02:04:16;;;;;;;11.65;5.30;;;0.10;99.90;;;;;;4446187;28;656851;-61
2020/12/26 02:07:05;;;;;;;14.18;6.20;;;0.30;99.90;;;;;;4450256;28;656575;-63
2020/12/26 02:09:52;;;;;;;9.97;4.37;;;0.10;99.90;;;;;;4450215;28;656705;-63
2020/12/26 02:12:39;;;;;;;14.63;6.20;;;0.20;99.90;;;;;;4474378;28;655245;-62
2020/12/26 02:15:26;;;;;;;14.68;5.72;;;0.30;99.90;;;;;;4469458;28;656857;-61
2020/12/26 02:18:12;;;;;;;14.13;6.43;;;0.20;99.90;;;;;;4450380;28;656660;-62
2020/12/26 02:20:59;;;;;;;11.47;5.77;;;0.10;99.90;;;;;;4470665;28;656153;-62
2020/12/26 02:23:48;;;;;;;7.50;3.47;;;0.10;99.90;;;;;;4453738;28;656829;-63
2020/12/26 02:26:35;;;;;;;14.60;6.60;;;0.10;99.90;;;;;;4470171;28;656641;-60
2020/12/26 02:29:22;;;;;;;16.45;6.78;;;0.10;99.90;;;;;;4450032;28;656733;-63
2020/12/26 02:32:09;;;;;;;14.17;6.63;;;0.00;99.90;;;;;;4473593;28;656517;-62
2020/12/26 02:34:56;;;;;;;8.18;3.45;;;0.00;99.90;;;;;;4469256;28;657747;-61
2020/12/26 02:37:43;;;;;;;14.50;6.33;;;0.10;99.90;;;;;;4451757;28;655465;-61
2020/12/26 02:40:30;;;;;;;13.87;6.90;;;0.30;99.90;;;;;;4469082;28;657366;-61
2020/12/26 02:43:20;;;;;;;10.50;4.73;;;0.30;99.90;;;;;;4450262;28;656563;-62
2020/12/26 02:46:10;;;;;;;15.77;7.73;;;0.20;99.90;;;;;;4455148;28;656757;-63
2020/12/26 02:48:57;;;;;;;14.47;7.10;;;0.30;99.90;;;;;;4453392;28;656574;-63
2020/12/26 02:51:44;;;;;;;16.33;7.18;;;0.10;99.90;;;;;;4476140;28;657189;-61
2020/12/26 02:54:31;;;;;;;16.88;6.22;;;0.20;99.90;;;;;;4472026;28;656551;-62
2020/12/26 02:57:18;;;;;;;11.83;5.43;;;0.10;99.90;;;;;;4453271;28;656596;-61
2020/12/26 03:00:05;;;;;;;17.90;7.50;;;0.00;99.90;;;;;;4471895;28;657872;-61
2020/12/26 03:02:52;;;;;;;16.63;7.53;;;0.00;99.90;;;;;;4452910;28;656687;-61
2020/12/26 03:05:39;;;;;;;21.60;7.43;;;-0.10;99.90;;;;;;4473959;28;658104;-61
2020/12/26 03:08:27;;;;;;;16.60;7.97;;;-0.10;99.90;;;;;;4462210;28;657673;-63
2020/12/26 03:11:14;;;;;;;17.77;7.90;;;0.00;99.90;;;;;;4474852;28;656908;-61
2020/12/26 03:14:02;;;;;;;18.30;8.70;;;0.00;99.90;;;;;;4471820;28;657121;-61
2020/12/26 03:16:48;;;;;;;17.53;8.43;;;-0.10;99.90;;;;;;4448622;28;657656;-62
2020/12/26 03:19:35;;;;;;;14.33;6.83;;;-0.10;99.90;;;;;;4467723;28;658226;-61
2020/12/26 03:22:22;;;;;;;14.87;7.83;;;0.00;99.90;;;;;;4451475;28;658253;-62
2020/12/26 03:25:09;;;;;;;17.83;8.80;;;0.00;99.90;;;;;;4475191;28;657885;-61
2020/12/26 03:27:57;;;;;;;18.30;8.80;;;-0.10;99.90;;;;;;4465602;28;656411;-63
2020/12/26 03:30:45;;;;;;;17.63;9.00;;;0.00;99.90;;;;;;4474423;28;657136;-61
2020/12/26 03:33:32;;;;;;;19.30;9.57;;;0.00;99.90;;;;;;4453484;28;656511;-63
2020/12/26 03:36:18;;;;;;;20.73;9.83;;;-0.10;99.90;;;;;;4475478;28;656353;-61
2020/12/26 03:39:05;;;;;;;17.47;8.67;;;-0.20;99.90;;;;;;4468934;28;657561;-62
2020/12/26 03:41:52;;;;;;;20.57;9.20;;;-0.20;99.90;;;;;;4451081;28;657673;-62
2020/12/26 03:44:40;;;;;;;20.37;9.50;;;-0.20;99.90;;;;;;4471311;28;659791;-62
2020/12/26 03:47:28;;;;;;;17.20;8.37;;;-0.20;99.90;;;;;;4451550;28;657626;-63
2020/12/26 03:50:15;;;;;;;19.77;9.40;;;-0.20;99.90;;;;;;4469610;28;658326;-61
2020/12/26 03:53:02;;;;;;;23.00;9.70;;;-0.10;99.90;;;;;;4453464;28;659010;-63
2020/12/26 03:55:49;;;;;;;20.30;9.53;;;-0.20;99.90;;;;;;4468830;28;657241;-62
2020/12/26 03:58:36;;;;;;;21.63;9.97;;;-0.30;99.90;;;;;;4469565;28;658458;-61
2020/12/26 04:01:23;;;;;;;22.80;10.13;;;-0.30;99.90;;;;;;4450752;28;658727;-62
2020/12/26 04:04:13;;;;;;;17.23;6.47;;;-0.30;99.90;;;;;;4468039;28;659230;-62
2020/12/26 04:07:00;;;;;;;20.67;8.97;;;-0.30;99.90;;;;;;4446442;28;657805;-61
2020/12/26 04:09:47;;;;;;;21.43;8.63;;;-0.30;99.90;;;;;;4450581;28;657678;-61
2020/12/26 04:12:34;;;;;;;20.07;9.47;;;-0.20;99.90;;;;;;4469249;28;658814;-62
2020/12/26 04:15:22;;;;;;;20.27;8.87;;;-0.20;99.90;;;;;;4466599;28;657422;-63
2020/12/26 04:18:09;;;;;;;20.87;9.33;;;-0.10;99.90;;;;;;4473646;28;657612;-62
2020/12/26 04:20:56;;;;;;;23.83;10.47;;;0.00;99.90;;;;;;4469354;28;658185;-61
2020/12/26 04:23:43;;;;;;;24.23;10.03;;;-0.20;99.90;;;;;;4446197;28;659441;-61
2020/12/26 04:26:30;;;;;;;18.60;9.00;;;-0.20;99.90;;;;;;4465388;28;659212;-61
2020/12/26 04:29:21;;;;;;;19.13;9.40;;;-0.30;99.90;;;;;;4447438;28;657682;-62
2020/12/26 04:32:08;;;;;;;19.87;9.23;;;-0.40;99.90;;;;;;4449980;28;658478;-61
2020/12/26 04:34:55;;;;;;;20.40;8.20;;;-0.40;99.90;;;;;;4468975;28;658122;-61
2020/12/26 04:37:43;;;;;;;23.00;9.13;;;-0.40;99.90;;;;;;4450065;28;657667;-61
2020/12/26 04:40:31;;;;;;;26.23;10.80;;;-0.40;99.90;;;;;;4468600;28;658438;-61
2020/12/26 04:43:18;;;;;;;19.38;8.07;;;-0.40;99.90;;;;;;4448875;28;659090;-61
2020/12/26 04:46:18;;;;;;;20.90;9.57;;;-0.20;99.90;;;;;;4468932;28;658241;-62
2020/12/26 04:49:06;;;;;;;22.33;9.50;;;-0.30;99.90;;;;;;4445907;28;657920;-61
2020/12/26 04:51:53;;;;;;;14.27;6.35;;;-0.30;99.90;;;;;;4450175;28;657872;-61
2020/12/26 04:54:43;;;;;;;19.87;9.30;;;-0.40;99.90;;;;;;4468583;28;658155;-62
2020/12/26 04:57:33;;;;;;;19.47;9.77;;;-0.30;99.90;;;;;;4445711;28;657477;-61
2020/12/26 05:00:20;;;;;;;21.60;8.97;;;-0.30;99.90;;;;;;4443385;28;659061;-61
2020/12/26 05:03:09;;;;;;;17.13;8.70;;;-0.30;99.90;;;;;;4449092;28;657649;-62
2020/12/26 05:06:03;;;;;;;18.03;8.30;;;-0.30;99.90;;;;;;4467943;28;657780;-63
2020/12/26 05:08:50;;;;;;;13.57;4.87;;;-0.30;99.90;;;;;;4444605;28;658572;-62
2020/12/26 05:11:38;;;;;;;21.97;8.83;;;-0.30;99.90;;;;;;4449276;28;657850;-62
2020/12/26 05:14:26;;;;;;;18.90;9.23;;;-0.20;99.90;;;;;;4468340;28;657719;-61
2020/12/26 05:17:13;;;;;;;21.63;8.23;;;-0.40;99.90;;;;;;4449107;28;658171;-61
2020/12/26 05:20:00;;;;;;;20.90;9.57;;;-0.40;99.90;;;;;;4472225;28;658612;-61
2020/12/26 05:22:47;;;;;;;19.43;8.90;;;-0.30;99.90;;;;;;4449550;28;657504;-63
2020/12/26 05:25:34;;;;;;;17.13;8.93;;;-0.30;99.90;;;;;;4468268;28;658482;-61
2020/12/26 05:28:25;;;;;;;21.63;9.57;;;-0.40;99.90;;;;;;4468046;28;657854;-61
2020/12/26 05:31:12;;;;;;;5.97;3.43;;;-0.30;99.90;;;;;;4449614;28;658292;-63
2020/12/26 05:34:06;;;;;;;16.10;6.83;;;-0.10;99.90;;;;;;4469617;28;658322;-61
2020/12/26 05:36:53;;;;;;;20.20;9.03;;;-0.20;99.90;;;;;;4422134;28;658804;-61
2020/12/26 05:39:40;;;;;;;22.50;9.43;;;-0.40;99.90;;;;;;4468392;28;657826;-61
2020/12/26 05:42:28;;;;;;;21.08;9.90;;;-0.40;99.90;;;;;;4449106;28;659119;-63
2020/12/26 05:45:15;;;;;;;19.98;8.98;;;-0.40;99.90;;;;;;4468313;28;658738;-61
2020/12/26 05:48:07;;;;;;;18.77;9.40;;;-0.50;99.90;;;;;;4448441;28;657680;-62
2020/12/26 05:50:54;;;;;;;13.40;6.27;;;-0.50;99.90;;;;;;4445385;28;658166;-62
2020/12/26 05:53:42;;;;;;;15.55;7.38;;;-0.50;99.90;;;;;;4453861;28;657584;-63
2020/12/26 05:56:29;;;;;;;14.73;7.37;;;-0.40;99.90;;;;;;4467747;28;658334;-61
2020/12/26 05:59:25;;;;;;;13.17;7.43;;;-0.40;99.90;;;;;;4467803;28;658223;-62
2020/12/26 06:02:24;;;;;;;15.23;6.83;;;-0.50;99.90;;;;;;4426277;28;657508;-61
2020/12/26 06:05:11;;;;;;;12.87;7.23;;;-0.30;99.90;;;;;;4445020;28;657701;-62
2020/12/26 06:07:57;;;;;;;14.70;7.53;;;-0.30;99.90;;;;;;4449215;28;657695;-62
2020/12/26 06:10:49;;;;;;;12.90;6.82;;;-0.40;99.90;;;;;;4469140;28;658417;-61
2020/12/26 06:13:36;;;;;;;18.60;8.50;;;-0.40;99.90;;;;;;4445265;28;658153;-62
2020/12/26 06:16:24;;;;;;;15.93;7.77;;;-0.40;99.90;;;;;;4448706;28;658157;-62
2020/12/26 06:19:12;;;;;;;17.00;8.13;;;-0.40;99.90;;;;;;4459489;28;657663;-63
2020/12/26 06:22:00;;;;;;;15.18;8.15;;;-0.40;99.90;;;;;;4471680;28;658744;-62
2020/12/26 06:24:50;;;;;;;18.40;10.02;;;-0.30;99.90;;;;;;4457551;28;658074;-62
2020/12/26 06:27:37;;;;;;;20.20;9.27;;;-0.20;99.90;;;;;;4451400;28;658753;-63
2020/12/26 06:30:23;;;;;;;7.20;3.20;;;-0.20;99.90;;;;;;4471597;28;658974;-62
2020/12/26 06:33:11;;;;;;;19.73;10.60;;;-0.10;99.90;;;;;;4469523;28;657230;-62
2020/12/26 06:35:59;;;;;;;22.30;10.17;;;-0.20;99.90;;;;;;4450961;28;659031;-63
2020/12/26 06:38:46;;;;;;;19.93;9.77;;;-0.30;99.90;;;;;;4469867;28;659276;-62
2020/12/26 06:41:33;;;;;;;19.97;9.90;;;-0.30;99.90;;;;;;4452297;28;657701;-61
2020/12/26 06:44:22;;;;;;;17.73;8.90;;;-0.30;99.90;;;;;;4470823;28;659125;-62
2020/12/26 06:47:09;;;;;;;21.20;9.63;;;-0.30;99.90;;;;;;4447687;28;658536;-62
2020/12/26 06:50:12;;;;;;;19.47;9.07;;;-0.30;99.90;;;;;;4470860;28;657745;-62
2020/12/26 06:53:00;;;;;;;19.70;9.33;;;-0.20;99.90;;;;;;4424783;28;658154;-62
2020/12/26 06:55:50;;;;;;;18.57;9.43;;;-0.10;99.90;;;;;;4451546;28;657794;-63
2020/12/26 06:58:52;;;;;;;24.50;9.83;;;-0.20;99.90;;;;;;4451497;28;657821;-63
2020/12/26 07:01:39;;;;;;;19.83;10.20;;;-0.30;99.90;;;;;;4424700;28;657412;-62
2020/12/26 07:04:27;;;;;;;18.50;9.77;;;-0.40;99.90;;;;;;4458697;28;658729;-63
2020/12/26 07:07:15;;;;;;;21.13;10.50;;;-0.40;99.90;;;;;;4474877;28;658419;-62
2020/12/26 07:10:03;;;;;;;17.00;9.50;;;-0.40;99.90;;;;;;4450202;28;659122;-63
2020/12/26 07:12:50;;;;;;;20.40;9.43;;;-0.30;99.90;;;;;;4474158;28;658981;-62
2020/12/26 07:15:37;;;;;;;18.77;9.68;;;-0.20;99.90;;;;;;4455085;28;657409;-63
2020/12/26 07:18:24;;;;;;;19.53;8.90;;;0.00;99.90;;;;;;4474872;28;657319;-62
2020/12/26 07:21:11;;;;;;;18.10;9.20;;;0.00;99.90;;;;;;4471529;28;656654;-62
2020/12/26 07:23:58;;;;;;;18.80;8.77;;;0.00;99.90;;;;;;4448886;28;656961;-62
2020/12/26 07:26:46;;;;;;;20.00;9.80;;;0.00;99.90;;;;;;4471472;28;658119;-61
2020/12/26 07:29:33;;;;;;;22.50;9.70;;;0.20;99.90;;;;;;4452492;28;656369;-61
2020/12/26 07:32:49;;;;;;;25.55;10.32;;;0.10;99.90;;;;;;4470663;28;657378;-61
2020/12/26 07:35:41;;;;;;;19.73;8.07;;;0.10;99.90;;;;;;4447025;28;658053;-62
2020/12/26 07:38:28;;;;;;;25.60;12.90;;;0.10;99.90;;;;;;4428092;28;656880;-62
2020/12/26 07:41:16;;;;;;;29.13;12.07;;;0.30;99.90;;;;;;4469929;28;657583;-62
2020/12/26 07:44:04;;;;;;;28.03;13.60;;;0.10;99.90;;;;;;4446784;28;658830;-62
2020/12/26 07:46:52;;;;;;;31.40;13.80;;;0.20;99.90;;;;;;4465710;28;657543;-64
2020/12/26 07:49:39;;;;;;;30.38;14.10;;;0.10;99.90;;;;;;4474099;28;657083;-62
2020/12/26 07:52:26;;;;;;;19.92;8.43;;;0.10;99.90;;;;;;4470030;28;657580;-62
2020/12/26 07:55:13;;;;;;;28.43;12.23;;;0.20;99.90;;;;;;4449613;28;656601;-63
2020/12/26 07:58:04;;;;;;;30.03;12.40;;;0.20;99.90;;;;;;4469880;28;658310;-62
2020/12/26 08:00:52;;;;;;;26.17;11.80;;;0.10;99.90;;;;;;4446510;28;657743;-62
2020/12/26 08:03:39;;;;;;;25.50;10.83;;;0.10;99.90;;;;;;4446177;28;658311;-62
2020/12/26 08:06:26;;;;;;;22.03;8.83;;;0.40;99.90;;;;;;4468669;28;658606;-62
2020/12/26 08:09:13;;;;;;;23.77;10.40;;;0.40;99.90;;;;;;4449018;28;657058;-62
2020/12/26 08:12:05;;;;;;;20.57;9.27;;;0.30;99.90;;;;;;4469239;28;657278;-62
2020/12/26 08:14:58;;;;;;;16.23;7.03;;;0.30;99.90;;;;;;4428531;28;657006;-62
2020/12/26 08:17:48;;;;;;;19.43;5.27;;;0.50;99.90;;;;;;4447572;28;657134;-62
2020/12/26 08:20:37;;;;;;;18.17;8.38;;;0.50;99.90;;;;;;4447570;28;657497;-62
2020/12/26 08:23:23;;;;;;;14.13;6.80;;;0.40;99.90;;;;;;4447498;28;657793;-62
2020/12/26 08:26:10;;;;;;;23.80;9.23;;;0.20;99.90;;;;;;4470198;28;656534;-62
2020/12/26 08:29:00;;;;;;;12.13;5.10;;;0.10;99.90;;;;;;4451646;28;656644;-62
2020/12/26 08:31:47;;;;;;;22.08;9.52;;;0.30;99.90;;;;;;4451446;28;656513;-63
2020/12/26 08:34:42;;;;;;;18.27;6.73;;;0.30;99.90;;;;;;4474286;28;656947;-62
2020/12/26 08:37:31;;;;;;;29.43;11.30;;;0.10;99.90;;;;;;4424338;28;657913;-62
2020/12/26 08:40:18;;;;;;;8.07;4.07;;;0.00;99.90;;;;;;4445938;28;658632;-62
2020/12/26 08:43:05;;;;;;;25.07;10.90;;;0.20;99.90;;;;;;4471267;28;656356;-61
2020/12/26 08:45:52;;;;;;;23.33;10.47;;;0.20;99.90;;;;;;4449916;28;657546;-62
2020/12/26 08:48:40;;;;;;;23.97;10.57;;;0.10;99.90;;;;;;4468773;28;657846;-62
2020/12/26 08:51:29;;;;;;;27.40;14.23;;;0.20;99.90;;;;;;4449547;28;657888;-64
2020/12/26 08:54:17;;;;;;;29.07;13.50;;;0.10;99.90;;;;;;4462331;28;657692;-63
2020/12/26 08:57:18;;;;;;;17.43;6.60;;;-0.10;99.90;;;;;;4468361;28;659516;-61
2020/12/26 09:00:18;;;;;;;26.33;12.47;;;0.00;99.90;;;;;;4445569;28;658500;-62
2020/12/26 09:03:05;;;;;;;16.13;6.87;;;0.10;99.90;;;;;;4445640;28;658156;-62
2020/12/26 09:05:52;;;;;;;15.50;5.70;;;0.10;99.90;;;;;;4450969;28;656535;-63
2020/12/26 09:08:40;;;;;;;25.20;11.47;;;0.30;99.90;;;;;;4469271;28;657699;-61
2020/12/26 09:11:30;;;;;;;23.13;9.67;;;0.40;99.90;;;;;;4449472;28;657881;-63
2020/12/26 09:14:21;;;;;;;17.83;9.47;;;0.40;99.90;;;;;;4450465;28;656364;-62
2020/12/26 09:17:09;;;;;;;15.37;8.20;;;0.50;99.90;;;;;;4446721;28;657759;-62
2020/12/26 09:19:58;;;;;;;21.87;10.97;;;0.60;99.90;;;;;;4452737;28;656452;-64
2020/12/26 09:22:45;;;;;;;20.80;10.00;;;0.70;99.90;;;;;;4468650;28;658956;-61
2020/12/26 09:25:33;;;;;;;18.67;9.40;;;0.70;99.90;;;;;;4448649;28;657843;-63
2020/12/26 09:28:20;;;;;;;25.20;11.47;;;0.80;99.90;;;;;;4469498;28;658185;-62
2020/12/26 09:31:10;;;;;;;28.07;11.87;;;0.90;99.90;;;;;;4449266;28;657567;-64
2020/12/26 09:33:58;;;;;;;26.97;11.97;;;1.00;99.90;;;;;;4449115;28;657452;-64
2020/12/26 09:36:45;;;;;;;29.93;11.77;;;1.00;99.90;;;;;;4468208;28;659138;-62
2020/12/26 09:39:33;;;;;;;27.50;14.30;;;0.80;99.90;;;;;;4449078;28;658071;-62
2020/12/26 09:42:25;;;;;;;27.33;10.80;;;0.70;99.90;;;;;;4468001;28;658497;-62
2020/12/26 09:45:12;;;;;;;31.47;15.87;;;0.70;99.90;;;;;;4426044;28;657725;-64
2020/12/26 09:47:59;;;;;;;34.63;14.17;;;0.60;99.90;;;;;;4468036;28;658441;-62
2020/12/26 09:50:46;;;;;;;24.77;11.23;;;0.50;99.90;;;;;;4467813;28;657626;-62
2020/12/26 09:53:33;;;;;;;31.47;14.13;;;0.40;99.90;;;;;;4445146;28;658598;-62
2020/12/26 09:56:21;;;;;;;26.47;12.47;;;0.60;99.90;;;;;;4470347;28;657650;-62
2020/12/26 09:59:09;;;;;;;25.23;10.90;;;0.60;99.90;;;;;;4450361;28;658011;-62
2020/12/26 10:01:56;;;;;;;32.13;13.17;;;0.50;99.90;;;;;;4475237;28;657990;-62
2020/12/26 10:04:43;;;;;;;28.27;12.27;;;0.50;99.90;;;;;;4448466;28;657580;-62
2020/12/26 10:07:30;;;;;;;30.00;13.57;;;0.40;99.90;;;;;;4471063;28;658452;-62
2020/12/26 10:10:17;;;;;;;23.30;10.60;;;0.30;99.90;;;;;;4452361;28;657370;-62
2020/12/26 10:13:04;;;;;;;25.20;9.60;;;0.40;99.90;;;;;;4471176;28;658139;-62
2020/12/26 10:15:56;;;;;;;35.30;12.70;;;0.40;99.90;;;;;;4464178;28;657686;-63
2020/12/26 10:18:43;;;;;;;27.00;8.73;;;0.40;99.90;;;;;;4452690;28;658134;-63
2020/12/26 10:21:30;;;;;;;28.17;12.53;;;0.30;99.90;;;;;;4472635;28;657225;-62
2020/12/26 10:24:17;;;;;;;24.13;9.48;;;0.40;99.90;;;;;;4455911;28;658070;-63
2020/12/26 10:27:04;;;;;;;21.80;10.27;;;0.50;99.90;;;;;;4476098;28;656643;-62
2020/12/26 10:29:51;;;;;;;22.87;9.10;;;0.50;99.90;;;;;;4470761;28;657291;-62
2020/12/26 10:32:39;;;;;;;26.17;11.40;;;0.50;99.90;;;;;;4453366;28;656568;-63
2020/12/26 10:35:26;;;;;;;20.83;8.10;;;0.50;99.90;;;;;;4471189;28;657911;-61
2020/12/26 10:38:13;;;;;;;18.83;8.67;;;0.60;99.90;;;;;;4450122;28;657490;-62
2020/12/26 10:41:00;;;;;;;24.57;7.33;;;0.60;99.90;;;;;;4472293;28;657609;-62
2020/12/26 10:43:47;;;;;;;21.87;8.47;;;0.70;99.90;;;;;;4452795;28;657077;-63
2020/12/26 10:46:34;;;;;;;18.50;7.57;;;0.70;99.90;;;;;;4471759;28;657432;-62
2020/12/26 10:49:22;;;;;;;19.73;7.23;;;0.70;99.90;;;;;;4472377;28;656585;-61
2020/12/26 10:52:09;;;;;;;25.00;10.32;;;0.70;99.90;;;;;;4451857;28;658198;-61
2020/12/26 10:54:57;;;;;;;24.50;9.43;;;0.60;99.90;;;;;;4474805;28;656823;-62
2020/12/26 10:57:45;;;;;;;22.13;8.73;;;0.60;99.90;;;;;;4448892;28;658054;-62
2020/12/26 11:00:32;;;;;;;22.77;8.87;;;0.80;99.90;;;;;;4452582;28;656874;-63
2020/12/26 11:03:19;;;;;;;25.03;9.57;;;0.80;99.90;;;;;;4475880;28;656857;-62
2020/12/26 11:06:07;;;;;;;21.75;9.35;;;0.70;99.90;;;;;;4471615;28;657159;-62
2020/12/26 11:08:54;;;;;;;9.10;3.73;;;0.70;99.90;;;;;;4448918;28;657511;-61
2020/12/26 11:11:47;;;;;;;24.83;9.00;;;0.80;99.90;;;;;;4473106;28;656561;-62
2020/12/26 11:14:34;;;;;;;21.50;9.30;;;0.90;99.90;;;;;;4448101;28;656886;-62
2020/12/26 11:17:21;;;;;;;12.03;4.90;;;0.80;99.90;;;;;;4471408;28;656530;-62
2020/12/26 11:20:09;;;;;;;25.37;9.30;;;0.90;99.90;;;;;;4448627;28;657320;-63
2020/12/26 11:22:57;;;;;;;26.63;8.50;;;0.90;99.90;;;;;;4471536;28;656761;-62
2020/12/26 11:25:44;;;;;;;23.23;9.50;;;1.00;99.90;;;;;;4448261;28;657501;-62
2020/12/26 11:28:31;;;;;;;18.07;5.53;;;0.90;99.90;;;;;;4471357;28;656515;-62
2020/12/26 11:31:22;;;;;;;27.40;9.80;;;0.80;99.90;;;;;;4449498;28;656320;-62
2020/12/26 11:34:11;;;;;;;26.17;9.97;;;0.90;99.90;;;;;;4452715;28;657373;-62
2020/12/26 11:36:58;;;;;;;27.52;9.93;;;0.80;99.90;;;;;;4452449;28;656721;-62
2020/12/26 11:39:46;;;;;;;23.03;9.90;;;0.90;99.90;;;;;;4471338;28;656954;-62
2020/12/26 11:42:35;;;;;;;24.60;9.20;;;0.70;99.90;;;;;;4452311;28;656659;-62
2020/12/26 11:45:22;;;;;;;26.13;10.13;;;0.80;99.90;;;;;;4451925;28;656806;-62
2020/12/26 11:48:09;;;;;;;22.63;7.57;;;0.60;99.90;;;;;;4469769;28;658506;-62
2020/12/26 11:50:56;;;;;;;23.63;8.60;;;0.50;99.90;;;;;;4471063;28;657933;-61
2020/12/26 11:53:43;;;;;;;21.53;8.13;;;0.50;99.90;;;;;;4449100;28;656537;-62
2020/12/26 11:56:31;;;;;;;24.07;8.63;;;0.50;99.90;;;;;;4470176;28;656911;-62
2020/12/26 11:59:18;;;;;;;24.93;9.80;;;0.60;99.90;;;;;;4451807;28;656775;-61
2020/12/26 12:02:05;;;;;;;25.87;8.20;;;0.50;99.90;;;;;;4470536;28;657313;-62
2020/12/26 12:04:52;;;;;;;9.97;3.17;;;0.50;99.90;;;;;;4451607;28;656708;-62
2020/12/26 12:07:39;;;;;;;11.27;4.63;;;0.70;99.90;;;;;;4472253;28;656495;-62
2020/12/26 12:10:26;;;;;;;21.83;7.77;;;0.70;99.90;;;;;;4470717;28;656782;-61
2020/12/26 12:13:14;;;;;;;21.70;8.10;;;0.80;99.90;;;;;;4448191;28;656613;-62
2020/12/26 12:16:02;;;;;;;29.83;7.80;;;0.80;99.90;;;;;;4470336;28;656808;-61
2020/12/26 12:18:49;;;;;;;24.33;7.50;;;0.70;99.90;;;;;;4447180;28;657460;-61
2020/12/26 12:21:37;;;;;;;21.57;8.30;;;0.50;99.90;;;;;;4463365;28;657035;-62
2020/12/26 12:24:24;;;;;;;23.17;7.07;;;0.60;99.90;;;;;;4474775;28;656502;-62
2020/12/26 12:27:11;;;;;;;11.80;5.27;;;0.50;99.90;;;;;;4470131;28;656906;-62
2020/12/26 12:29:59;;;;;;;21.67;7.17;;;0.50;99.90;;;;;;4451521;28;656498;-62
2020/12/26 12:32:52;;;;;;;17.30;6.30;;;0.60;99.90;;;;;;4470071;28;656641;-61
2020/12/26 12:35:39;;;;;;;26.43;9.33;;;0.70;99.90;;;;;;4424218;28;656854;-62
2020/12/26 12:38:26;;;;;;;24.60;7.27;;;0.50;99.90;;;;;;4470182;28;657295;-61
2020/12/26 12:41:14;;;;;;;27.93;8.87;;;0.50;99.90;;;;;;4448654;28;656813;-62
2020/12/26 12:44:01;;;;;;;19.73;7.45;;;0.60;99.90;;;;;;4470093;28;656491;-61
2020/12/26 12:46:49;;;;;;;26.67;9.10;;;0.70;99.90;;;;;;4451217;28;656330;-62
2020/12/26 12:49:36;;;;;;;22.37;8.10;;;0.60;99.90;;;;;;4469853;28;657027;-61
2020/12/26 12:52:23;;;;;;;23.53;8.80;;;0.60;99.90;;;;;;4450997;28;657023;-62
2020/12/26 12:55:10;;;;;;;23.63;8.30;;;0.60;99.90;;;;;;4469292;28;656852;-61
2020/12/26 12:57:57;;;;;;;24.97;8.33;;;0.50;99.90;;;;;;4450728;28;656298;-61
2020/12/26 13:00:44;;;;;;;23.80;8.50;;;0.50;99.90;;;;;;4474219;28;657534;-61
2020/12/26 13:03:32;;;;;;;22.47;6.90;;;0.60;99.90;;;;;;4469837;28;656500;-62
2020/12/26 13:06:19;;;;;;;20.45;7.55;;;0.50;99.90;;;;;;4450885;28;657428;-62
2020/12/26 13:09:06;;;;;;;19.73;7.23;;;0.60;99.90;;;;;;4473633;28;656181;-61
2020/12/26 13:11:53;;;;;;;20.97;7.20;;;0.70;99.90;;;;;;4446805;28;656717;-62
2020/12/26 13:14:40;;;;;;;17.40;5.17;;;0.60;99.90;;;;;;4469573;28;657503;-62
2020/12/26 13:17:28;;;;;;;11.87;3.53;;;0.60;99.90;;;;;;4450684;28;656408;-61
2020/12/26 13:20:18;;;;;;;15.83;5.70;;;0.60;99.90;;;;;;4469332;28;658222;-62
2020/12/26 13:23:06;;;;;;;14.60;5.27;;;0.70;99.90;;;;;;4446615;28;657227;-61
2020/12/26 13:25:53;;;;;;;13.50;4.73;;;0.80;99.90;;;;;;4450610;28;656638;-62
2020/12/26 13:28:40;;;;;;;9.87;3.30;;;0.60;99.90;;;;;;4468958;28;656947;-62
2020/12/26 13:31:27;;;;;;;15.18;5.60;;;0.60;99.90;;;;;;4451761;28;655922;-63
2020/12/26 13:34:14;;;;;;;10.10;3.57;;;0.60;99.90;;;;;;4473800;28;657328;-61
2020/12/26 13:37:02;;;;;;;14.70;5.17;;;0.70;99.90;;;;;;4469427;28;657309;-62
2020/12/26 13:39:49;;;;;;;15.37;4.87;;;0.50;99.90;;;;;;4447975;28;656765;-62
2020/12/26 13:42:37;;;;;;;13.90;4.67;;;0.50;99.90;;;;;;4468126;28;657176;-63
2020/12/26 13:45:24;;;;;;;16.23;4.80;;;0.40;99.90;;;;;;4473629;28;656560;-61
2020/12/26 13:48:12;;;;;;;15.23;5.73;;;0.50;99.90;;;;;;4462414;28;657148;-63
2020/12/26 13:50:59;;;;;;;14.23;5.03;;;0.60;99.90;;;;;;4473567;28;657638;-61
2020/12/26 13:53:47;;;;;;;13.10;5.17;;;0.70;99.90;;;;;;4469356;28;656495;-61
2020/12/26 13:56:36;;;;;;;20.90;5.70;;;0.60;99.90;;;;;;4445873;28;658163;-62
2020/12/26 13:59:25;;;;;;;11.87;3.37;;;0.40;99.90;;;;;;4449141;28;657254;-62
2020/12/26 14:02:12;;;;;;;20.27;5.73;;;0.60;99.90;;;;;;4449952;28;656400;-62
2020/12/26 14:04:59;;;;;;;18.47;5.50;;;0.70;97.00;;;;;;4473082;28;657261;-62
2020/12/26 14:07:47;;;;;;;16.97;5.50;;;0.50;97.40;;;;;;4456493;28;656469;-62
2020/12/26 14:10:35;;;;;;;15.55;5.75;;;0.40;96.00;;;;;;4473321;28;656947;-61
2020/12/26 14:13:22;;;;;;;17.67;5.07;;;0.30;95.70;;;;;;4451093;28;656416;-63
2020/12/26 14:16:09;;;;;;;15.18;5.75;;;0.20;95.90;;;;;;4473254;28;657403;-61
2020/12/26 14:18:56;;;;;;;14.17;4.47;;;0.10;96.80;;;;;;4459925;28;656602;-61